sensor_id;sensor_type;location;lat;lon;timestamp;pressure;altitude;pressure_sealevel;temperature;humidity
79028;BME280;68427;48.476;19.102;2023-04-15T00:01:08;96408.81;;;5.52;81.14
79028;BME280;68427;48.476;19.102;2023-04-15T00:03:34;96411.78;;;5.49;81.19
79028;BME280;68427;48.476;19.102;2023-04-15T00:06:00;96405.53;;;5.44;81.76
79028;BME280;68427;48.476;19.102;2023-04-15T00:08:26;96406.72;;;5.41;81.72
79028;BME280;68427;48.476;19.102;2023-04-15T00:10:52;96408.13;;;5.44;80.81
79028;BME280;68427;48.476;19.102;2023-04-15T00:13:19;96405.31;;;5.38;82.20
79028;BME280;68427;48.476;19.102;2023-04-15T00:15:45;96409.47;;;5.33;81.61
79028;BME280;68427;48.476;19.102;2023-04-15T00:18:11;96404.22;;;5.26;82.00
79028;BME280;68427;48.476;19.102;2023-04-15T00:20:37;96412.56;;;5.22;82.03
79028;BME280;68427;48.476;19.102;2023-04-15T00:23:03;96406.94;;;5.18;82.27
79028;BME280;68427;48.476;19.102;2023-04-15T00:25:29;96410.56;;;5.17;83.11
79028;BME280;68427;48.476;19.102;2023-04-15T00:27:55;96412.69;;;5.13;82.67
79028;BME280;68427;48.476;19.102;2023-04-15T00:30:22;96406.72;;;5.13;83.18
79028;BME280;68427;48.476;19.102;2023-04-15T00:32:55;96399.53;;;5.15;83.31
79028;BME280;68427;48.476;19.102;2023-04-15T00:35:21;96401.38;;;5.21;82.66
79028;BME280;68427;48.476;19.102;2023-04-15T00:37:46;96397.81;;;5.22;82.77
79028;BME280;68427;48.476;19.102;2023-04-15T00:40:12;96394.44;;;5.28;83.21
79028;BME280;68427;48.476;19.102;2023-04-15T00:42:38;96403.88;;;5.36;80.92
79028;BME280;68427;48.476;19.102;2023-04-15T00:45:04;96405.50;;;5.37;82.01
79028;BME280;68427;48.476;19.102;2023-04-15T00:47:32;96407.91;;;5.38;80.41
79028;BME280;68427;48.476;19.102;2023-04-15T00:49:59;96401.53;;;5.41;80.63
79028;BME280;68427;48.476;19.102;2023-04-15T00:52:25;96397.56;;;5.45;80.38
79028;BME280;68427;48.476;19.102;2023-04-15T00:54:51;96394.19;;;5.51;80.22
79028;BME280;68427;48.476;19.102;2023-04-15T00:57:23;96391.81;;;5.50;80.86
79028;BME280;68427;48.476;19.102;2023-04-15T00:59:50;96394.97;;;5.45;80.16
79028;BME280;68427;48.476;19.102;2023-04-15T01:02:16;96389.34;;;5.41;81.00
79028;BME280;68427;48.476;19.102;2023-04-15T01:04:43;96393.97;;;5.46;80.88
79028;BME280;68427;48.476;19.102;2023-04-15T01:07:09;96386.41;;;5.51;81.69
79028;BME280;68427;48.476;19.102;2023-04-15T01:09:35;96389.63;;;5.53;80.36
79028;BME280;68427;48.476;19.102;2023-04-15T01:12:01;96396.63;;;5.53;79.85
79028;BME280;68427;48.476;19.102;2023-04-15T01:14:28;96388.66;;;5.61;79.56
79028;BME280;68427;48.476;19.102;2023-04-15T01:16:54;96381.28;;;5.58;80.02
79028;BME280;68427;48.476;19.102;2023-04-15T01:19:20;96372.47;;;5.59;81.27
79028;BME280;68427;48.476;19.102;2023-04-15T01:21:48;96375.06;;;5.59;81.62
79028;BME280;68427;48.476;19.102;2023-04-15T01:24:17;96370.88;;;5.58;81.36
79028;BME280;68427;48.476;19.102;2023-04-15T01:26:45;96375.47;;;5.56;80.42
79028;BME280;68427;48.476;19.102;2023-04-15T01:29:10;96375.06;;;5.52;81.21
79028;BME280;68427;48.476;19.102;2023-04-15T01:31:36;96379.63;;;5.50;80.83
79028;BME280;68427;48.476;19.102;2023-04-15T01:34:02;96381.03;;;5.53;80.94
79028;BME280;68427;48.476;19.102;2023-04-15T01:36:27;96374.19;;;5.45;81.87
79028;BME280;68427;48.476;19.102;2023-04-15T01:38:54;96397.38;;;5.47;81.41
79028;BME280;68427;48.476;19.102;2023-04-15T01:41:21;96382.97;;;5.44;81.30
79028;BME280;68427;48.476;19.102;2023-04-15T01:43:51;96398.53;;;5.44;81.64
79028;BME280;68427;48.476;19.102;2023-04-15T01:46:17;96402.53;;;5.40;82.87
79028;BME280;68427;48.476;19.102;2023-04-15T01:48:42;96398.69;;;5.36;83.55
79028;BME280;68427;48.476;19.102;2023-04-15T01:51:08;96399.31;;;5.38;83.51
79028;BME280;68427;48.476;19.102;2023-04-15T01:53:34;96383.09;;;5.29;83.30
79028;BME280;68427;48.476;19.102;2023-04-15T01:56:00;96399.31;;;5.38;83.41
79028;BME280;68427;48.476;19.102;2023-04-15T01:58:25;96403.50;;;5.39;84.03
79028;BME280;68427;48.476;19.102;2023-04-15T02:00:53;96417.50;;;5.38;83.79
79028;BME280;68427;48.476;19.102;2023-04-15T02:03:18;96417.50;;;5.38;84.29
79028;BME280;68427;48.476;19.102;2023-04-15T02:05:44;96416.88;;;5.36;84.35
79028;BME280;68427;48.476;19.102;2023-04-15T02:08:10;96418.50;;;5.37;84.31
79028;BME280;68427;48.476;19.102;2023-04-15T02:10:36;96414.72;;;5.39;84.79
79028;BME280;68427;48.476;19.102;2023-04-15T02:13:03;96413.31;;;5.37;85.15
79028;BME280;68427;48.476;19.102;2023-04-15T02:15:29;96414.91;;;5.38;84.84
79028;BME280;68427;48.476;19.102;2023-04-15T02:17:56;96425.28;;;5.38;84.41
79028;BME280;68427;48.476;19.102;2023-04-15T02:20:23;96420.09;;;5.38;84.73
79028;BME280;68427;48.476;19.102;2023-04-15T02:22:49;96427.72;;;5.46;84.51
79028;BME280;68427;48.476;19.102;2023-04-15T02:25:15;96418.13;;;5.47;84.57
79028;BME280;68427;48.476;19.102;2023-04-15T02:27:44;96422.19;;;5.49;85.00
79028;BME280;68427;48.476;19.102;2023-04-15T02:30:10;96418.75;;;5.49;84.64
79028;BME280;68427;48.476;19.102;2023-04-15T02:32:36;96418.13;;;5.47;85.16
79028;BME280;68427;48.476;19.102;2023-04-15T02:35:04;96413.16;;;5.45;84.90
79028;BME280;68427;48.476;19.102;2023-04-15T02:37:31;96413.16;;;5.45;85.37
79028;BME280;68427;48.476;19.102;2023-04-15T02:39:56;96418.13;;;5.47;85.07
79028;BME280;68427;48.476;19.102;2023-04-15T02:42:22;96422.34;;;5.48;84.88
79028;BME280;68427;48.476;19.102;2023-04-15T02:44:52;96411.16;;;5.47;84.75
79028;BME280;68427;48.476;19.102;2023-04-15T02:47:19;96416.94;;;5.43;84.86
79028;BME280;68427;48.476;19.102;2023-04-15T02:49:45;96414.34;;;5.43;84.91
79028;BME280;68427;48.476;19.102;2023-04-15T02:52:12;96410.31;;;5.40;85.24
79028;BME280;68427;48.476;19.102;2023-04-15T02:54:38;96421.13;;;5.44;85.03
79028;BME280;68427;48.476;19.102;2023-04-15T02:57:04;96408.13;;;5.44;85.71
79028;BME280;68427;48.476;19.102;2023-04-15T02:59:31;96412.72;;;5.41;86.42
79028;BME280;68427;48.476;19.102;2023-04-15T03:01:56;96406.09;;;5.39;85.39
79028;BME280;68427;48.476;19.102;2023-04-15T03:04:25;96409.13;;;5.43;85.07
79028;BME280;68427;48.476;19.102;2023-04-15T03:06:51;96405.38;;;5.45;85.01
79028;BME280;68427;48.476;19.102;2023-04-15T03:09:18;96401.13;;;5.44;85.15
79028;BME280;68427;48.476;19.102;2023-04-15T03:11:43;96402.94;;;5.44;85.42
79028;BME280;68427;48.476;19.102;2023-04-15T03:14:09;96396.78;;;5.45;85.62
79028;BME280;68427;48.476;19.102;2023-04-15T03:16:35;96397.38;;;5.47;85.48
79028;BME280;68427;48.476;19.102;2023-04-15T03:19:01;96394.34;;;5.43;86.11
79028;BME280;68427;48.476;19.102;2023-04-15T03:21:26;96392.16;;;5.40;85.92
79028;BME280;68427;48.476;19.102;2023-04-15T03:23:52;96399.13;;;5.39;85.43
79028;BME280;68427;48.476;19.102;2023-04-15T03:26:27;96391.34;;;5.39;85.45
79028;BME280;68427;48.476;19.102;2023-04-15T03:28:53;96388.06;;;5.31;85.95
79028;BME280;68427;48.476;19.102;2023-04-15T03:31:19;96393.28;;;5.31;85.44
79028;BME280;68427;48.476;19.102;2023-04-15T03:33:45;96389.25;;;5.28;85.94
79028;BME280;68427;48.476;19.102;2023-04-15T03:36:11;96388.84;;;5.25;85.48
79028;BME280;68427;48.476;19.102;2023-04-15T03:38:36;96401.19;;;5.23;84.90
79028;BME280;68427;48.476;19.102;2023-04-15T03:41:02;96395.56;;;5.19;84.94
79028;BME280;68427;48.476;19.102;2023-04-15T03:43:29;96389.41;;;5.20;85.23
79028;BME280;68427;48.476;19.102;2023-04-15T03:45:55;96391.00;;;5.21;84.77
79028;BME280;68427;48.476;19.102;2023-04-15T03:48:21;96385.00;;;5.20;84.23
79028;BME280;68427;48.476;19.102;2023-04-15T03:50:46;96394.59;;;5.20;84.68
79028;BME280;68427;48.476;19.102;2023-04-15T03:53:12;96400.16;;;5.17;84.81
79028;BME280;68427;48.476;19.102;2023-04-15T03:55:38;96395.78;;;5.17;84.85
79028;BME280;68427;48.476;19.102;2023-04-15T03:58:04;96395.47;;;5.06;85.54
79028;BME280;68427;48.476;19.102;2023-04-15T04:00:31;96389.31;;;5.07;85.78
79028;BME280;68427;48.476;19.102;2023-04-15T04:02:57;96394.91;;;5.10;85.63
79028;BME280;68427;48.476;19.102;2023-04-15T04:05:22;96386.94;;;5.12;85.18
79028;BME280;68427;48.476;19.102;2023-04-15T04:07:48;96392.16;;;5.12;85.64
79028;BME280;68427;48.476;19.102;2023-04-15T04:10:14;96396.94;;;5.15;85.23
79028;BME280;68427;48.476;19.102;2023-04-15T04:12:40;96397.56;;;5.17;85.10
79028;BME280;68427;48.476;19.102;2023-04-15T04:15:07;96395.22;;;5.22;85.23
79028;BME280;68427;48.476;19.102;2023-04-15T04:17:34;96396.63;;;5.25;84.88
79028;BME280;68427;48.476;19.102;2023-04-15T04:20:00;96409.47;;;5.33;85.18
79028;BME280;68427;48.476;19.102;2023-04-15T04:22:26;96407.44;;;5.28;85.26
79028;BME280;68427;48.476;19.102;2023-04-15T04:24:51;96411.81;;;5.28;85.12
79028;BME280;68427;48.476;19.102;2023-04-15T04:27:17;96413.88;;;5.32;85.32
79028;BME280;68427;48.476;19.102;2023-04-15T04:29:43;96412.47;;;5.36;85.51
79028;BME280;68427;48.476;19.102;2023-04-15T04:32:09;96405.75;;;5.42;85.57
79028;BME280;68427;48.476;19.102;2023-04-15T04:34:36;96411.78;;;5.49;85.66
79028;BME280;68427;48.476;19.102;2023-04-15T04:37:02;96413.22;;;5.52;85.40
79028;BME280;68427;48.476;19.102;2023-04-15T04:39:28;96410.22;;;5.55;85.43
79028;BME280;68427;48.476;19.102;2023-04-15T04:41:54;96422.81;;;5.58;85.81
79028;BME280;68427;48.476;19.102;2023-04-15T04:44:20;96428.63;;;5.60;85.28
79028;BME280;68427;48.476;19.102;2023-04-15T04:46:46;96424.06;;;5.62;85.48
79028;BME280;68427;48.476;19.102;2023-04-15T04:49:12;96418.66;;;5.63;84.82
79028;BME280;68427;48.476;19.102;2023-04-15T04:51:39;96420.06;;;5.66;84.74
79028;BME280;68427;48.476;19.102;2023-04-15T04:54:05;96430.28;;;5.68;85.07
79028;BME280;68427;48.476;19.102;2023-04-15T04:56:30;96431.09;;;5.68;85.34
79028;BME280;68427;48.476;19.102;2023-04-15T04:58:56;96432.50;;;5.71;85.17
79028;BME280;68427;48.476;19.102;2023-04-15T05:01:22;96440.13;;;5.72;85.22
79028;BME280;68427;48.476;19.102;2023-04-15T05:03:47;96448.53;;;5.74;85.85
79028;BME280;68427;48.476;19.102;2023-04-15T05:06:13;96448.13;;;5.77;85.57
79028;BME280;68427;48.476;19.102;2023-04-15T05:08:40;96447.75;;;5.80;85.38
79028;BME280;68427;48.476;19.102;2023-04-15T05:11:06;96447.38;;;5.83;85.57
79028;BME280;68427;48.476;19.102;2023-04-15T05:13:32;96440.00;;;5.87;85.40
79028;BME280;68427;48.476;19.102;2023-04-15T05:15:57;96448.22;;;5.91;84.79
79028;BME280;68427;48.476;19.102;2023-04-15T05:18:24;96450.00;;;5.90;85.78
79028;BME280;68427;48.476;19.102;2023-04-15T05:20:49;96448.22;;;5.91;85.17
79028;BME280;68427;48.476;19.102;2023-04-15T05:23:15;96447.84;;;5.94;85.30
79028;BME280;68427;48.476;19.102;2023-04-15T05:25:43;96458.69;;;5.97;85.19
79028;BME280;68427;48.476;19.102;2023-04-15T05:28:09;96453.28;;;5.99;85.58
79028;BME280;68427;48.476;19.102;2023-04-15T05:30:35;96455.31;;;6.03;85.37
79028;BME280;68427;48.476;19.102;2023-04-15T05:33:00;96454.91;;;6.06;85.05
79028;BME280;68427;48.476;19.102;2023-04-15T05:35:26;96457.16;;;6.10;84.48
79028;BME280;68427;48.476;19.102;2023-04-15T05:37:52;96453.16;;;6.14;84.75
79028;BME280;68427;48.476;19.102;2023-04-15T05:40:18;96446.38;;;6.13;84.91
79028;BME280;68427;48.476;19.102;2023-04-15T05:42:45;96458.34;;;6.07;85.36
79028;BME280;68427;48.476;19.102;2023-04-15T05:45:11;96447.56;;;6.17;85.44
79028;BME280;68427;48.476;19.102;2023-04-15T05:47:39;96440.41;;;6.25;84.84
79028;BME280;68427;48.476;19.102;2023-04-15T05:50:05;96452.06;;;6.30;84.28
79028;BME280;68427;48.476;19.102;2023-04-15T05:52:31;96444.03;;;6.24;84.35
79028;BME280;68427;48.476;19.102;2023-04-15T05:54:57;96440.47;;;6.39;83.92
79028;BME280;68427;48.476;19.102;2023-04-15T05:57:23;96436.75;;;6.55;83.36
79028;BME280;68427;48.476;19.102;2023-04-15T05:59:56;96437.78;;;6.74;82.65
79028;BME280;68427;48.476;19.102;2023-04-15T06:02:22;96440.63;;;6.85;81.90
79028;BME280;68427;48.476;19.102;2023-04-15T06:04:48;96440.63;;;6.92;80.72
79028;BME280;68427;48.476;19.102;2023-04-15T06:07:13;96448.84;;;6.96;80.96
79028;BME280;68427;48.476;19.102;2023-04-15T06:09:39;96447.25;;;7.01;81.03
79028;BME280;68427;48.476;19.102;2023-04-15T06:12:05;96448.47;;;7.05;80.78
79028;BME280;68427;48.476;19.102;2023-04-15T06:14:36;96442.03;;;7.14;80.53
79028;BME280;68427;48.476;19.102;2023-04-15T06:17:03;96441.28;;;7.27;79.80
79028;BME280;68427;48.476;19.102;2023-04-15T06:19:29;96445.88;;;7.39;79.17
79028;BME280;68427;48.476;19.102;2023-04-15T06:21:55;96444.47;;;7.56;78.37
79028;BME280;68427;48.476;19.102;2023-04-15T06:24:21;96447.06;;;7.76;79.20
79028;BME280;68427;48.476;19.102;2023-04-15T06:26:47;96445.81;;;7.98;77.96
79028;BME280;68427;48.476;19.102;2023-04-15T06:29:12;96450.34;;;8.30;77.56
79028;BME280;68427;48.476;19.102;2023-04-15T06:31:38;96438.44;;;8.54;77.04
79028;BME280;68427;48.476;19.102;2023-04-15T06:34:05;96440.88;;;8.87;75.31
79028;BME280;68427;48.476;19.102;2023-04-15T06:36:31;96447.59;;;9.08;74.19
79028;BME280;68427;48.476;19.102;2023-04-15T06:38:57;96456.16;;;9.15;73.23
79028;BME280;68427;48.476;19.102;2023-04-15T06:41:23;96451.22;;;9.32;72.50
79028;BME280;68427;48.476;19.102;2023-04-15T06:43:49;96445.72;;;9.40;72.79
79028;BME280;68427;48.476;19.102;2023-04-15T06:46:14;96445.78;;;9.34;71.74
79028;BME280;68427;48.476;19.102;2023-04-15T06:48:40;96451.47;;;9.30;71.46
79028;BME280;68427;48.476;19.102;2023-04-15T06:51:08;96452.31;;;9.18;72.15
79028;BME280;68427;48.476;19.102;2023-04-15T06:53:33;96451.09;;;9.20;72.54
79028;BME280;68427;48.476;19.102;2023-04-15T06:56:00;96446.72;;;9.46;72.32
79028;BME280;68427;48.476;19.102;2023-04-15T06:58:32;96452.13;;;9.69;71.12
79028;BME280;68427;48.476;19.102;2023-04-15T07:00:58;96448.69;;;9.76;70.95
79028;BME280;68427;48.476;19.102;2023-04-15T07:03:23;96452.59;;;9.85;70.52
79028;BME280;68427;48.476;19.102;2023-04-15T07:05:49;96456.38;;;9.89;69.13
79028;BME280;68427;48.476;19.102;2023-04-15T07:08:16;96460.44;;;9.85;70.25
79028;BME280;68427;48.476;19.102;2023-04-15T07:10:42;96462.16;;;10.16;69.25
79028;BME280;68427;48.476;19.102;2023-04-15T07:13:08;96461.78;;;10.68;66.29
79028;BME280;68427;48.476;19.102;2023-04-15T07:15:33;96450.56;;;11.21;62.45
79028;BME280;68427;48.476;19.102;2023-04-15T07:18:00;96450.88;;;11.55;60.62
79028;BME280;68427;48.476;19.102;2023-04-15T07:20:26;96448.28;;;12.94;59.38
79028;BME280;68427;48.476;19.102;2023-04-15T07:22:51;96448.69;;;13.66;56.41
79028;BME280;68427;48.476;19.102;2023-04-15T07:25:19;96454.94;;;13.59;55.29
79028;BME280;68427;48.476;19.102;2023-04-15T07:27:44;96457.38;;;14.00;52.79
79028;BME280;68427;48.476;19.102;2023-04-15T07:30:11;96465.06;;;14.89;51.66
79028;BME280;68427;48.476;19.102;2023-04-15T07:32:37;96455.84;;;15.79;51.24
79028;BME280;68427;48.476;19.102;2023-04-15T07:35:03;96465.91;;;16.82;47.32
79028;BME280;68427;48.476;19.102;2023-04-15T07:37:29;96467.56;;;14.35;49.33
79028;BME280;68427;48.476;19.102;2023-04-15T07:39:54;96471.53;;;13.31;54.29
79028;BME280;68427;48.476;19.102;2023-04-15T07:42:22;96464.25;;;11.88;57.94
79028;BME280;68427;48.476;19.102;2023-04-15T07:44:47;96469.63;;;11.16;60.47
79028;BME280;68427;48.476;19.102;2023-04-15T07:47:13;96469.75;;;10.91;61.54
79028;BME280;68427;48.476;19.102;2023-04-15T07:49:40;96477.31;;;10.51;62.61
79028;BME280;68427;48.476;19.102;2023-04-15T07:52:06;96479.09;;;11.29;59.74
79028;BME280;68427;48.476;19.102;2023-04-15T07:54:31;96486.66;;;12.67;56.08
79028;BME280;68427;48.476;19.102;2023-04-15T07:56:57;96477.50;;;12.29;56.69
79028;BME280;68427;48.476;19.102;2023-04-15T07:59:24;96482.28;;;12.08;57.49
79028;BME280;68427;48.476;19.102;2023-04-15T08:01:52;96482.59;;;11.65;57.88
79028;BME280;68427;48.476;19.102;2023-04-15T08:04:17;96493.06;;;11.11;59.51
79028;BME280;68427;48.476;19.102;2023-04-15T08:06:43;96489.72;;;11.46;59.22
79028;BME280;68427;48.476;19.102;2023-04-15T08:09:09;96496.13;;;11.50;57.01
79028;BME280;68427;48.476;19.102;2023-04-15T08:11:35;96483.03;;;11.62;58.40
79028;BME280;68427;48.476;19.102;2023-04-15T08:14:01;96492.56;;;11.33;59.78
79028;BME280;68427;48.476;19.102;2023-04-15T08:16:28;96486.13;;;11.71;57.71
79028;BME280;68427;48.476;19.102;2023-04-15T08:18:55;96481.69;;;11.59;58.96
79028;BME280;68427;48.476;19.102;2023-04-15T08:21:21;96484.22;;;12.25;58.01
79028;BME280;68427;48.476;19.102;2023-04-15T08:23:48;96478.59;;;12.33;57.79
79028;BME280;68427;48.476;19.102;2023-04-15T08:26:14;96484.69;;;11.86;57.02
79028;BME280;68427;48.476;19.102;2023-04-15T08:28:41;96492.25;;;11.53;57.79
79028;BME280;68427;48.476;19.102;2023-04-15T08:31:07;96488.22;;;11.38;57.45
79028;BME280;68427;48.476;19.102;2023-04-15T08:33:35;96484.63;;;11.51;59.68
79028;BME280;68427;48.476;19.102;2023-04-15T08:36:01;96497.38;;;11.48;58.51
79028;BME280;68427;48.476;19.102;2023-04-15T08:38:27;96495.41;;;11.31;58.78
79028;BME280;68427;48.476;19.102;2023-04-15T08:40:52;96490.22;;;11.13;58.65
79028;BME280;68427;48.476;19.102;2023-04-15T08:43:21;96493.50;;;11.08;59.96
79028;BME280;68427;48.476;19.102;2023-04-15T08:45:51;96498.16;;;11.36;56.45
79028;BME280;68427;48.476;19.102;2023-04-15T08:48:18;96492.84;;;11.13;56.25
79028;BME280;68427;48.476;19.102;2023-04-15T08:50:45;96488.88;;;10.92;56.96
79028;BME280;68427;48.476;19.102;2023-04-15T08:53:12;96490.94;;;10.90;58.39
79028;BME280;68427;48.476;19.102;2023-04-15T08:55:42;96501.63;;;10.88;58.86
79028;BME280;68427;48.476;19.102;2023-04-15T08:58:12;96498.69;;;10.66;59.63
79028;BME280;68427;48.476;19.102;2023-04-15T09:00:39;96498.19;;;10.39;62.66
79028;BME280;68427;48.476;19.102;2023-04-15T09:03:05;96503.28;;;10.27;60.24
79028;BME280;68427;48.476;19.102;2023-04-15T09:05:32;96508.09;;;10.12;61.72
79028;BME280;68427;48.476;19.102;2023-04-15T09:07:59;96505.66;;;9.92;62.41
79028;BME280;68427;48.476;19.102;2023-04-15T09:10:25;96498.97;;;9.96;64.32
79028;BME280;68427;48.476;19.102;2023-04-15T09:12:50;96505.38;;;10.00;63.87
79028;BME280;68427;48.476;19.102;2023-04-15T09:15:17;96501.06;;;9.87;64.47
79028;BME280;68427;48.476;19.102;2023-04-15T09:17:43;96511.75;;;9.86;65.07
79028;BME280;68427;48.476;19.102;2023-04-15T09:20:11;96513.97;;;9.82;nan
79028;BME280;68427;48.476;19.102;2023-04-15T09:22:38;96518.22;;;9.83;69.13
79028;BME280;68427;48.476;19.102;2023-04-15T09:25:24;96527.44;;;9.61;70.39
79028;BME280;68427;48.476;19.102;2023-04-15T09:27:52;96522.56;;;9.33;69.24
79028;BME280;68427;48.476;19.102;2023-04-15T09:30:18;96539.00;;;9.08;71.23
79028;BME280;68427;48.476;19.102;2023-04-15T09:32:48;96533.38;;;8.59;73.58
79028;BME280;68427;48.476;19.102;2023-04-15T09:35:15;96524.75;;;8.52;74.02
79028;BME280;68427;48.476;19.102;2023-04-15T09:37:40;96535.63;;;8.22;74.53
79028;BME280;68427;48.476;19.102;2023-04-15T09:40:09;96534.06;;;8.01;76.42
79028;BME280;68427;48.476;19.102;2023-04-15T09:42:34;96542.69;;;7.95;74.96
79028;BME280;68427;48.476;19.102;2023-04-15T09:45:07;96528.03;;;8.21;75.42
79028;BME280;68427;48.476;19.102;2023-04-15T09:47:33;96525.75;;;8.58;75.45
79028;BME280;68427;48.476;19.102;2023-04-15T09:50:00;96532.78;;;9.09;76.21
79028;BME280;68427;48.476;19.102;2023-04-15T09:52:26;96528.53;;;10.22;70.90
79028;BME280;68427;48.476;19.102;2023-04-15T09:54:52;96522.25;;;11.99;65.48
79028;BME280;68427;48.476;19.102;2023-04-15T09:57:23;96521.50;;;12.50;60.12
79028;BME280;68427;48.476;19.102;2023-04-15T09:59:49;96518.19;;;11.84;64.37
79028;BME280;68427;48.476;19.102;2023-04-15T10:02:15;96523.72;;;12.06;62.41
79028;BME280;68427;48.476;19.102;2023-04-15T10:04:42;96524.28;;;11.97;67.08
79028;BME280;68427;48.476;19.102;2023-04-15T10:07:10;96519.81;;;12.21;64.74
79028;BME280;68427;48.476;19.102;2023-04-15T10:09:37;96511.72;;;14.28;60.88
79028;BME280;68427;48.476;19.102;2023-04-15T10:12:03;96508.56;;;15.14;52.25
79028;BME280;68427;48.476;19.102;2023-04-15T10:14:33;96502.34;;;16.22;51.47
79028;BME280;68427;48.476;19.102;2023-04-15T10:17:00;96512.94;;;14.59;51.25
79028;BME280;68427;48.476;19.102;2023-04-15T10:19:30;96505.03;;;16.80;48.94
79028;BME280;68427;48.476;19.102;2023-04-15T10:21:56;96504.97;;;17.63;45.98
79028;BME280;68427;48.476;19.102;2023-04-15T10:24:23;96512.47;;;16.30;45.99
79028;BME280;68427;48.476;19.102;2023-04-15T10:26:49;96514.31;;;15.33;49.57
79028;BME280;68427;48.476;19.102;2023-04-15T10:29:16;96512.88;;;14.15;52.47
79028;BME280;68427;48.476;19.102;2023-04-15T10:31:43;96511.63;;;12.81;56.27
79028;BME280;68427;48.476;19.102;2023-04-15T10:34:10;96511.72;;;12.10;58.64
79028;BME280;68427;48.476;19.102;2023-04-15T10:36:36;96512.59;;;11.81;58.78
79028;BME280;68427;48.476;19.102;2023-04-15T10:39:38;96513.09;;;11.89;57.24
79028;BME280;68427;48.476;19.102;2023-04-15T10:42:09;96511.84;;;12.04;55.67
79028;BME280;68427;48.476;19.102;2023-04-15T10:44:36;96518.22;;;12.43;56.31
79028;BME280;68427;48.476;19.102;2023-04-15T10:47:08;96513.03;;;13.58;51.96
79028;BME280;68427;48.476;19.102;2023-04-15T10:49:42;96514.56;;;14.82;48.53
79028;BME280;68427;48.476;19.102;2023-04-15T10:52:09;96515.34;;;15.05;49.17
79028;BME280;68427;48.476;19.102;2023-04-15T10:54:35;96511.44;;;14.46;48.59
79028;BME280;68427;48.476;19.102;2023-04-15T10:57:07;96512.47;;;14.07;48.24
79028;BME280;68427;48.476;19.102;2023-04-15T10:59:37;96516.72;;;13.57;48.88
79028;BME280;68427;48.476;19.102;2023-04-15T11:02:06;96509.94;;;12.75;49.62
79028;BME280;68427;48.476;19.102;2023-04-15T11:04:50;96517.88;;;12.28;52.93
79028;BME280;68427;48.476;19.102;2023-04-15T11:07:34;96523.81;;;12.23;51.69
79028;BME280;68427;48.476;19.102;2023-04-15T11:10:00;96527.13;;;11.95;52.56
79028;BME280;68427;48.476;19.102;2023-04-15T11:12:33;96528.63;;;12.03;55.47
79028;BME280;68427;48.476;19.102;2023-04-15T11:15:24;96529.41;;;12.39;52.87
79028;BME280;68427;48.476;19.102;2023-04-15T11:17:53;96530.75;;;13.05;51.34
79028;BME280;68427;48.476;19.102;2023-04-15T11:20:25;96534.13;;;13.17;50.54
79028;BME280;68427;48.476;19.102;2023-04-15T11:22:52;96526.28;;;13.06;50.19
79028;BME280;68427;48.476;19.102;2023-04-15T11:25:22;96537.19;;;13.26;53.73
79028;BME280;68427;48.476;19.102;2023-04-15T11:27:49;96532.00;;;13.43;52.31
79028;BME280;68427;48.476;19.102;2023-04-15T11:30:19;96536.16;;;13.56;51.14
79028;BME280;68427;48.476;19.102;2023-04-15T11:32:46;96532.88;;;13.20;52.14
79028;BME280;68427;48.476;19.102;2023-04-15T11:35:13;96526.56;;;13.21;53.49
79028;BME280;68427;48.476;19.102;2023-04-15T11:37:38;96528.19;;;13.51;50.47
79028;BME280;68427;48.476;19.102;2023-04-15T11:40:06;96517.66;;;13.22;50.68
79028;BME280;68427;48.476;19.102;2023-04-15T11:42:32;96529.50;;;12.67;50.85
79028;BME280;68427;48.476;19.102;2023-04-15T11:45:05;96530.56;;;12.95;49.43
79028;BME280;68427;48.476;19.102;2023-04-15T11:47:31;96528.72;;;12.55;49.75
79028;BME280;68427;48.476;19.102;2023-04-15T11:50:14;96525.03;;;12.56;50.84
79028;BME280;68427;48.476;19.102;2023-04-15T11:52:41;96528.75;;;12.20;54.74
79028;BME280;68427;48.476;19.102;2023-04-15T11:55:07;96528.16;;;12.18;52.31
79028;BME280;68427;48.476;19.102;2023-04-15T11:57:34;96531.53;;;11.83;52.71
79028;BME280;68427;48.476;19.102;2023-04-15T12:00:00;96525.81;;;11.86;52.68
79028;BME280;68427;48.476;19.102;2023-04-15T12:02:30;96542.13;;;11.64;53.89
79028;BME280;68427;48.476;19.102;2023-04-15T12:05:02;96540.63;;;11.57;55.27
79028;BME280;68427;48.476;19.102;2023-04-15T12:07:30;96540.16;;;11.60;54.44
79028;BME280;68427;48.476;19.102;2023-04-15T12:09:56;96534.22;;;11.53;56.63
79028;BME280;68427;48.476;19.102;2023-04-15T12:12:26;96545.38;;;11.48;58.95
79028;BME280;68427;48.476;19.102;2023-04-15T12:14:51;96544.78;;;11.46;55.61
79028;BME280;68427;48.476;19.102;2023-04-15T12:17:17;96540.38;;;11.46;54.05
79028;BME280;68427;48.476;19.102;2023-04-15T12:19:43;96541.50;;;11.51;55.44
79028;BME280;68427;48.476;19.102;2023-04-15T12:22:14;96539.16;;;11.73;54.74
79028;BME280;68427;48.476;19.102;2023-04-15T12:24:43;96545.72;;;11.94;56.96
79028;BME280;68427;48.476;19.102;2023-04-15T12:27:12;96541.28;;;12.41;55.41
79028;BME280;68427;48.476;19.102;2023-04-15T12:29:39;96543.63;;;12.78;53.68
79028;BME280;68427;48.476;19.102;2023-04-15T12:32:06;96537.34;;;13.19;49.80
79028;BME280;68427;48.476;19.102;2023-04-15T12:34:33;96539.66;;;13.45;51.08
79028;BME280;68427;48.476;19.102;2023-04-15T12:37:01;96544.31;;;13.54;51.22
79028;BME280;68427;48.476;19.102;2023-04-15T12:39:29;96546.69;;;13.56;49.84
79028;BME280;68427;48.476;19.102;2023-04-15T12:41:57;96552.94;;;12.97;48.47
79028;BME280;68427;48.476;19.102;2023-04-15T12:44:24;96547.41;;;12.59;50.90
79028;BME280;68427;48.476;19.102;2023-04-15T12:46:51;96545.47;;;12.78;52.07
79028;BME280;68427;48.476;19.102;2023-04-15T12:49:19;96542.56;;;12.91;52.56
79028;BME280;68427;48.476;19.102;2023-04-15T12:51:47;96542.72;;;12.84;49.26
79028;BME280;68427;48.476;19.102;2023-04-15T12:54:13;96544.47;;;12.55;50.39